createdAt,value
2022-09-29T00:01:10.165Z,7.53
2022-09-29T00:03:38.105Z,7.00
2022-09-29T00:06:12.612Z,7.53
2022-09-29T00:08:39.727Z,6.47
2022-09-29T00:11:12.870Z,6.63
2022-09-29T00:13:40.443Z,8.43
2022-09-29T00:16:08.179Z,7.37
2022-09-29T00:18:35.860Z,7.97
2022-09-29T00:21:11.022Z,7.80
2022-09-29T00:23:39.120Z,7.63
2022-09-29T00:26:14.529Z,7.10
2022-09-29T00:28:52.732Z,7.93
2022-09-29T00:31:21.553Z,9.63
2022-09-29T00:33:48.778Z,8.53
2022-09-29T00:36:19.397Z,7.07
2022-09-29T00:38:49.180Z,6.77
2022-09-29T00:41:21.483Z,7.40
2022-09-29T00:43:59.097Z,7.83
2022-09-29T00:46:43.322Z,7.30
2022-09-29T00:49:43.035Z,7.53
2022-09-29T00:52:37.952Z,7.73
2022-09-29T00:55:16.142Z,6.53
2022-09-29T00:58:23.054Z,6.53
2022-09-29T01:00:50.346Z,6.57
2022-09-29T01:03:22.906Z,6.20
2022-09-29T01:05:57.282Z,6.47
2022-09-29T01:08:36.631Z,7.83
2022-09-29T01:11:06.087Z,7.30
2022-09-29T01:13:35.577Z,7.10
2022-09-29T01:16:03.534Z,7.40
2022-09-29T01:18:32.683Z,7.20
2022-09-29T01:21:49.610Z,7.07
2022-09-29T01:24:28.727Z,6.77
2022-09-29T01:27:56.934Z,7.93
2022-09-29T01:30:48.997Z,8.07
2022-09-29T01:34:12.754Z,8.27
2022-09-29T01:36:51.453Z,8.17
2022-09-29T01:39:51.783Z,6.77
2022-09-29T01:42:34.726Z,7.77
2022-09-29T01:45:29.582Z,8.20
2022-09-29T01:48:06.112Z,7.07
2022-09-29T01:50:41.682Z,6.43
2022-09-29T01:53:28.269Z,8.20
2022-09-29T01:56:04.091Z,8.17
2022-09-29T01:58:43.583Z,7.90
2022-09-29T02:01:15.223Z,7.63
2022-09-29T02:03:51.374Z,7.53
2022-09-29T02:06:27.918Z,6.97
2022-09-29T02:09:02.449Z,8.37
2022-09-29T02:11:33.794Z,9.23
2022-09-29T02:14:27.790Z,8.93
2022-09-29T02:17:10.872Z,9.20
2022-09-29T02:19:43.279Z,8.57
2022-09-29T02:22:10.737Z,8.63
2022-09-29T02:24:38.070Z,9.00
2022-09-29T02:27:06.571Z,9.80
2022-09-29T02:29:38.137Z,10.57
2022-09-29T02:32:10.032Z,10.10
2022-09-29T02:34:43.721Z,11.13
2022-09-29T02:37:41.328Z,9.97
2022-09-29T02:40:43.416Z,10.33
2022-09-29T02:43:21.508Z,9.67
2022-09-29T02:46:30.654Z,10.17
2022-09-29T02:49:30.401Z,9.77
2022-09-29T02:52:49.571Z,10.17
2022-09-29T02:55:37.455Z,9.87
2022-09-29T02:58:38.960Z,10.10
2022-09-29T03:01:07.648Z,9.67
2022-09-29T03:03:35.017Z,10.30
2022-09-29T03:06:02.508Z,9.10
2022-09-29T03:08:29.591Z,10.80
2022-09-29T03:10:56.813Z,11.00
2022-09-29T03:13:23.911Z,10.73
2022-09-29T03:15:51.063Z,10.03
2022-09-29T03:18:18.267Z,11.20
2022-09-29T03:20:45.396Z,10.80
2022-09-29T03:23:12.506Z,10.57
2022-09-29T03:25:39.766Z,9.87
2022-09-29T03:28:06.796Z,9.93
2022-09-29T03:30:34.071Z,9.77
2022-09-29T03:33:01.376Z,11.27
2022-09-29T03:35:28.496Z,9.53
2022-09-29T03:38:00.794Z,10.30
2022-09-29T03:40:29.173Z,10.97
2022-09-29T03:42:56.374Z,11.00
2022-09-29T03:45:23.606Z,9.70
2022-09-29T03:47:51.498Z,11.13
2022-09-29T03:50:18.584Z,10.30
2022-09-29T03:52:45.677Z,10.80
2022-09-29T03:55:12.778Z,10.57
2022-09-29T03:57:40.008Z,11.37
2022-09-29T04:00:08.087Z,11.27
2022-09-29T04:02:36.037Z,10.50
2022-09-29T04:05:03.357Z,11.07
2022-09-29T04:07:32.168Z,9.87
2022-09-29T04:09:59.225Z,10.73
2022-09-29T04:12:26.394Z,11.17
2022-09-29T04:14:53.473Z,9.53
2022-09-29T04:17:20.669Z,9.77
2022-09-29T04:19:47.767Z,10.53
2022-09-29T04:22:21.124Z,11.00
2022-09-29T04:24:48.430Z,11.07
2022-09-29T04:27:17.077Z,10.23
2022-09-29T04:29:45.003Z,10.53
2022-09-29T04:32:12.276Z,10.13
2022-09-29T04:34:39.480Z,10.60
2022-09-29T04:37:11.518Z,9.57
2022-09-29T04:39:38.736Z,9.83
2022-09-29T04:42:05.995Z,10.17
2022-09-29T04:44:33.183Z,10.50
2022-09-29T04:47:00.285Z,10.17
2022-09-29T04:49:27.585Z,10.97
2022-09-29T04:51:54.893Z,10.83
2022-09-29T04:54:22.080Z,11.20
2022-09-29T04:56:50.112Z,9.50
2022-09-29T04:59:18.162Z,10.47
2022-09-29T05:01:45.278Z,10.30
2022-09-29T05:04:13.822Z,10.80
2022-09-29T05:06:41.046Z,11.00
2022-09-29T05:09:08.924Z,10.33
2022-09-29T05:11:36.257Z,10.57
2022-09-29T05:14:03.831Z,9.90
2022-09-29T05:16:31.857Z,8.37
2022-09-29T05:18:59.668Z,11.03
2022-09-29T05:21:28.655Z,10.97
2022-09-29T05:23:57.110Z,11.20
2022-09-29T05:26:24.471Z,9.10
2022-09-29T05:28:51.749Z,9.63
2022-09-29T05:31:19.391Z,10.43
2022-09-29T05:33:46.645Z,9.83
2022-09-29T05:36:14.342Z,10.20
2022-09-29T05:38:41.484Z,9.20
2022-09-29T05:41:12.548Z,9.80
2022-09-29T05:43:40.898Z,10.30
2022-09-29T05:46:11.114Z,10.00
2022-09-29T05:48:38.602Z,9.67
2022-09-29T05:51:12.989Z,9.60
2022-09-29T05:53:41.188Z,9.67
2022-09-29T05:56:19.455Z,9.80
2022-09-29T05:58:46.869Z,10.73
2022-09-29T06:01:21.467Z,10.10
2022-09-29T06:03:48.967Z,13.27
2022-09-29T06:06:20.504Z,10.50
2022-09-29T06:08:48.945Z,10.63
2022-09-29T06:11:27.773Z,9.63
2022-09-29T06:13:56.016Z,11.23
2022-09-29T06:16:33.748Z,9.57
2022-09-29T06:19:03.209Z,10.37
2022-09-29T06:21:31.740Z,10.67
2022-09-29T06:23:59.300Z,10.70
2022-09-29T06:26:28.167Z,11.13
2022-09-29T06:28:57.306Z,10.80
2022-09-29T06:31:27.945Z,11.60
2022-09-29T06:34:06.331Z,11.23
2022-09-29T06:37:02.995Z,11.60
2022-09-29T06:39:30.865Z,12.23
2022-09-29T06:41:58.468Z,12.83
2022-09-29T06:44:30.936Z,11.53
2022-09-29T06:46:59.051Z,10.80
2022-09-29T06:49:26.565Z,11.10
2022-09-29T06:51:54.410Z,11.53
2022-09-29T06:54:27.190Z,11.10
2022-09-29T06:56:55.627Z,11.67
2022-09-29T06:59:23.277Z,11.17
2022-09-29T07:01:51.634Z,10.73
2022-09-29T07:04:21.456Z,11.70
2022-09-29T07:06:49.766Z,10.97
2022-09-29T07:09:17.802Z,11.17
2022-09-29T07:11:48.626Z,10.53
2022-09-29T07:14:18.384Z,10.80
2022-09-29T07:16:48.522Z,11.27
2022-09-29T07:19:18.440Z,10.93
2022-09-29T07:21:47.006Z,11.27
2022-09-29T07:24:14.679Z,10.77
2022-09-29T07:26:42.564Z,11.67
2022-09-29T07:29:14.920Z,11.53
2022-09-29T07:31:51.995Z,10.53
2022-09-29T07:34:21.416Z,11.00
2022-09-29T07:36:49.191Z,10.70
2022-09-29T07:39:16.596Z,12.23
2022-09-29T07:41:44.013Z,11.57
2022-09-29T07:44:11.730Z,11.00
2022-09-29T07:46:39.004Z,10.57
2022-09-29T07:49:06.237Z,10.93
2022-09-29T07:51:33.424Z,9.70
2022-09-29T07:54:05.677Z,9.60
2022-09-29T07:56:33.247Z,10.00
2022-09-29T07:59:02.550Z,10.67
2022-09-29T08:01:31.367Z,11.03
2022-09-29T08:03:58.755Z,10.77
2022-09-29T08:06:27.247Z,12.47
2022-09-29T08:09:03.424Z,11.67
2022-09-29T08:11:33.439Z,12.30
2022-09-29T08:14:05.102Z,12.30
2022-09-29T08:16:32.955Z,12.60
2022-09-29T08:19:01.720Z,11.03
2022-09-29T08:21:32.153Z,11.17
2022-09-29T08:24:00.655Z,11.80
2022-09-29T08:26:39.773Z,10.57
2022-09-29T08:29:13.347Z,13.17
2022-09-29T08:31:44.001Z,13.30
2022-09-29T08:34:11.392Z,10.30
2022-09-29T08:36:38.542Z,11.17
2022-09-29T08:39:06.152Z,14.20
2022-09-29T08:41:36.010Z,11.00
2022-09-29T08:44:41.736Z,13.90
2022-09-29T08:47:28.572Z,11.83
2022-09-29T08:50:17.032Z,12.73
2022-09-29T08:52:53.021Z,10.40
2022-09-29T08:55:22.175Z,13.03
2022-09-29T08:57:58.431Z,11.93
2022-09-29T09:00:40.805Z,11.03
2022-09-29T09:03:41.517Z,13.53
2022-09-29T09:06:32.159Z,12.07
2022-09-29T09:09:13.651Z,15.00
2022-09-29T09:11:46.635Z,13.17
2022-09-29T09:15:03.215Z,12.27
2022-09-29T09:18:09.448Z,11.20
2022-09-29T09:21:02.088Z,12.23
2022-09-29T09:23:55.461Z,13.60
2022-09-29T09:26:40.277Z,12.60
2022-09-29T09:29:37.862Z,11.73
2022-09-29T09:32:17.673Z,13.03
2022-09-29T09:35:32.952Z,12.73
2022-09-29T09:38:12.242Z,13.60
2022-09-29T09:40:51.748Z,11.60
2022-09-29T09:43:42.289Z,12.23
2022-09-29T09:46:24.042Z,11.40
2022-09-29T09:49:23.109Z,11.17
2022-09-29T09:52:03.185Z,12.03
2022-09-29T09:54:39.763Z,10.70
2022-09-29T09:57:25.829Z,11.87
2022-09-29T10:00:26.749Z,9.77
2022-09-29T10:02:58.650Z,11.23
2022-09-29T10:05:45.540Z,11.23
2022-09-29T10:08:39.968Z,9.03
2022-09-29T10:11:33.362Z,10.43
2022-09-29T10:14:15.818Z,8.73
2022-09-29T10:16:58.866Z,9.43
2022-09-29T10:19:58.882Z,10.77
2022-09-29T10:22:30.124Z,10.13
2022-09-29T10:25:19.474Z,12.40
2022-09-29T10:27:55.381Z,10.07
2022-09-29T10:30:35.643Z,10.73
2022-09-29T10:33:10.416Z,12.57
2022-09-29T10:35:43.684Z,9.23
2022-09-29T10:38:27.707Z,8.97
2022-09-29T10:41:07.464Z,9.73
2022-09-29T10:43:34.521Z,7.73
2022-09-29T10:46:01.834Z,10.40
2022-09-29T10:48:29.472Z,7.83
2022-09-29T10:51:04.752Z,7.47
2022-09-29T10:53:40.610Z,8.60
2022-09-29T10:56:22.356Z,8.13
2022-09-29T10:59:01.776Z,7.77
2022-09-29T11:01:50.517Z,6.60
2022-09-29T11:04:34.586Z,6.17
2022-09-29T11:07:12.457Z,7.07
2022-09-29T11:09:45.232Z,6.60
2022-09-29T11:12:38.284Z,6.83
2022-09-29T11:15:27.777Z,6.20
2022-09-29T11:17:55.923Z,10.20
2022-09-29T11:20:34.056Z,6.53
2022-09-29T11:23:21.930Z,5.90
2022-09-29T11:26:10.338Z,7.33
2022-09-29T11:28:59.066Z,4.70
2022-09-29T11:32:12.947Z,6.77
2022-09-29T11:35:06.175Z,4.80
2022-09-29T11:38:02.834Z,5.30
2022-09-29T11:41:15.643Z,5.53
2022-09-29T11:43:48.317Z,5.53
2022-09-29T11:46:38.124Z,4.57
2022-09-29T11:49:28.979Z,6.27
2022-09-29T11:52:32.172Z,7.23
2022-09-29T11:54:59.607Z,5.47
2022-09-29T11:57:43.453Z,5.67
2022-09-29T12:00:19.005Z,2.93
2022-09-29T12:03:05.175Z,4.03
2022-09-29T12:06:20.480Z,4.27
2022-09-29T12:09:12.168Z,5.73
2022-09-29T12:12:18.780Z,5.70
2022-09-29T12:15:14.740Z,4.20
2022-09-29T12:18:04.362Z,5.23
2022-09-29T12:20:37.872Z,4.30
2022-09-29T12:23:12.149Z,4.80
2022-09-29T12:26:05.096Z,5.27
2022-09-29T12:28:55.037Z,5.17
2022-09-29T12:31:37.662Z,4.33
2022-09-29T12:34:46.185Z,4.37
2022-09-29T12:37:27.964Z,4.13
2022-09-29T12:40:19.390Z,3.93
2022-09-29T12:43:08.535Z,4.53
2022-09-29T12:45:55.999Z,4.43
2022-09-29T12:48:45.662Z,4.10
2022-09-29T12:51:30.889Z,4.97
2022-09-29T12:54:17.751Z,4.37
2022-09-29T12:56:58.844Z,3.60
2022-09-29T12:59:54.636Z,4.23
2022-09-29T13:03:27.634Z,3.10
2022-09-29T13:06:35.207Z,3.10
2022-09-29T13:10:00.251Z,3.13
2022-09-29T13:13:07.142Z,2.83
2022-09-29T13:15:50.500Z,3.30
2022-09-29T13:19:06.664Z,2.90
2022-09-29T13:22:23.253Z,2.50
2022-09-29T13:25:05.355Z,2.47
2022-09-29T13:27:44.562Z,2.20
2022-09-29T13:30:11.561Z,2.50
2022-09-29T13:32:58.810Z,2.53
2022-09-29T13:35:29.304Z,1.83
2022-09-29T13:38:14.155Z,1.50
2022-09-29T13:41:15.609Z,2.77
2022-09-29T13:43:51.478Z,1.60
2022-09-29T13:46:30.930Z,1.50
2022-09-29T13:49:10.102Z,2.50
2022-09-29T13:51:50.030Z,1.90
2022-09-29T13:54:22.140Z,1.90
2022-09-29T13:57:14.885Z,2.40
2022-09-29T14:00:05.474Z,3.47
2022-09-29T14:03:04.913Z,2.27
2022-09-29T14:05:31.969Z,1.70
2022-09-29T14:08:02.621Z,1.90
2022-09-29T14:10:35.597Z,2.10
2022-09-29T14:13:17.886Z,2.17
2022-09-29T14:15:56.719Z,1.97
2022-09-29T14:18:46.981Z,2.33
2022-09-29T14:21:54.683Z,1.60
2022-09-29T14:24:36.987Z,2.90
2022-09-29T14:27:32.518Z,1.93
2022-09-29T14:30:41.769Z,2.03
2022-09-29T14:33:23.171Z,2.83
2022-09-29T14:35:59.377Z,1.87
2022-09-29T14:41:52.140Z,3.63
2022-09-29T14:44:55.225Z,2.87
2022-09-29T14:47:57.857Z,4.17
2022-09-29T14:50:52.341Z,5.50
2022-09-29T14:53:56.854Z,3.90
2022-09-29T14:57:02.889Z,5.17
2022-09-29T15:00:15.222Z,5.10
2022-09-29T15:02:59.661Z,4.57
2022-09-29T15:05:35.571Z,4.83
2022-09-29T15:08:36.710Z,4.90
2022-09-29T15:11:07.924Z,5.13
2022-09-29T15:13:35.373Z,4.43
2022-09-29T15:16:20.789Z,5.47
2022-09-29T15:19:15.936Z,5.60
2022-09-29T15:22:46.584Z,5.93
2022-09-29T15:25:37.089Z,4.70
2022-09-29T15:28:29.206Z,3.83
2022-09-29T15:31:04.327Z,4.13
2022-09-29T15:33:43.942Z,5.27
2022-09-29T15:36:23.154Z,4.33
2022-09-29T15:39:00.621Z,4.10
2022-09-29T15:41:33.647Z,4.67
2022-09-29T15:44:18.730Z,4.57
2022-09-29T15:46:56.222Z,5.97
2022-09-29T15:49:28.938Z,4.30
2022-09-29T15:52:12.062Z,3.60
2022-09-29T15:54:45.128Z,5.90
2022-09-29T15:57:43.258Z,4.63
2022-09-29T16:00:22.485Z,4.83
2022-09-29T16:03:11.080Z,5.07
2022-09-29T16:05:48.214Z,4.63
2022-09-29T16:08:23.446Z,5.03
2022-09-29T16:11:00.224Z,3.63
2022-09-29T16:13:35.675Z,4.20
2022-09-29T16:16:08.012Z,4.93
2022-09-29T16:18:49.524Z,6.77
2022-09-29T16:21:25.429Z,6.20
2022-09-29T16:24:16.829Z,6.37
2022-09-29T16:26:50.495Z,4.93
2022-09-29T16:29:25.213Z,5.57
2022-09-29T16:31:53.072Z,6.40
2022-09-29T16:34:24.655Z,5.27
2022-09-29T16:37:05.961Z,4.07
2022-09-29T16:39:49.301Z,4.57
2022-09-29T16:42:25.770Z,5.17
2022-09-29T16:44:55.944Z,4.03
2022-09-29T16:47:28.837Z,4.33
2022-09-29T16:50:03.564Z,4.63
2022-09-29T16:52:47.427Z,4.37
2022-09-29T16:55:31.078Z,4.63
2022-09-29T16:58:08.978Z,7.20
2022-09-29T17:00:36.689Z,4.90
2022-09-29T17:03:08.244Z,4.53
2022-09-29T17:05:43.732Z,6.03
2022-09-29T17:08:22.449Z,6.00
2022-09-29T17:10:56.073Z,4.87
2022-09-29T17:13:25.075Z,5.07
2022-09-29T17:15:54.055Z,4.40
2022-09-29T17:18:25.149Z,4.37
2022-09-29T17:20:52.333Z,5.53
2022-09-29T17:23:19.593Z,6.50
2022-09-29T17:25:49.461Z,6.77
2022-09-29T17:28:24.673Z,6.37
2022-09-29T17:30:55.767Z,6.57
2022-09-29T17:33:23.916Z,5.90
2022-09-29T17:35:55.873Z,6.17
2022-09-29T17:38:24.248Z,5.40
2022-09-29T17:41:02.946Z,6.67
2022-09-29T17:43:31.611Z,7.70
2022-09-29T17:46:01.404Z,7.67
2022-09-29T17:48:30.747Z,7.33
2022-09-29T17:50:59.588Z,7.50
2022-09-29T17:53:27.710Z,6.37
2022-09-29T17:55:58.031Z,8.57
2022-09-29T17:58:26.006Z,9.80
2022-09-29T18:00:57.582Z,8.03
2022-09-29T18:03:25.380Z,8.70
2022-09-29T18:05:56.881Z,7.87
2022-09-29T18:08:27.113Z,7.13
2022-09-29T18:10:56.586Z,6.27
2022-09-29T18:13:29.384Z,7.27
2022-09-29T18:15:58.383Z,6.57
2022-09-29T18:18:26.337Z,9.07
2022-09-29T18:20:54.157Z,7.93
2022-09-29T18:23:25.552Z,9.30
2022-09-29T18:25:54.017Z,10.13
2022-09-29T18:28:21.357Z,9.73
2022-09-29T18:30:54.854Z,10.77
2022-09-29T18:33:22.517Z,10.87
2022-09-29T18:35:54.905Z,12.33
2022-09-29T18:38:22.758Z,11.03
2022-09-29T18:40:56.474Z,11.90
2022-09-29T18:43:25.714Z,11.70
2022-09-29T18:45:55.588Z,14.67
2022-09-29T18:48:23.629Z,15.67
2022-09-29T18:50:55.113Z,19.83
2022-09-29T18:53:23.759Z,17.90
2022-09-29T18:55:59.553Z,18.17
2022-09-29T18:58:26.698Z,14.87
2022-09-29T19:00:56.016Z,12.90
2022-09-29T19:03:27.257Z,13.80
2022-09-29T19:05:56.217Z,12.63
2022-09-29T19:08:23.914Z,13.03
2022-09-29T19:10:57.936Z,10.83
2022-09-29T19:13:25.409Z,10.13
2022-09-29T19:15:58.073Z,11.37
2022-09-29T19:18:27.350Z,11.97
2022-09-29T19:20:57.450Z,10.77
2022-09-29T19:23:26.511Z,9.97
2022-09-29T19:25:58.574Z,9.30
2022-09-29T19:28:27.517Z,9.83
2022-09-29T19:31:03.522Z,9.80
2022-09-29T19:33:30.779Z,10.13
2022-09-29T19:36:05.461Z,11.97
2022-09-29T19:38:32.816Z,9.90
2022-09-29T19:41:00.409Z,13.20
2022-09-29T19:43:27.894Z,16.53
2022-09-29T19:45:55.252Z,12.50
2022-09-29T19:48:24.074Z,12.30
2022-09-29T19:51:17.339Z,12.23
2022-09-29T19:53:48.664Z,11.47
2022-09-29T19:56:17.590Z,12.87
2022-09-29T19:58:45.212Z,12.13
2022-09-29T20:01:13.123Z,10.40
2022-09-29T20:03:42.046Z,10.97
2022-09-29T20:08:51.771Z,10.80
2022-09-29T20:11:19.329Z,10.70
2022-09-29T20:13:46.838Z,10.50
2022-09-29T20:16:14.305Z,11.40
2022-09-29T20:18:44.392Z,10.80
2022-09-29T20:21:13.915Z,11.60
2022-09-29T20:23:41.124Z,11.87
2022-09-29T20:26:09.224Z,11.93
2022-09-29T20:28:37.938Z,11.70
2022-09-29T20:31:07.875Z,11.53
2022-09-29T20:33:36.584Z,10.60
2022-09-29T20:36:06.007Z,11.23
2022-09-29T20:38:39.202Z,13.50
2022-09-29T20:41:07.700Z,11.73
2022-09-29T20:43:39.813Z,10.30
2022-09-29T20:46:13.497Z,12.33
2022-09-29T20:48:43.372Z,10.87
2022-09-29T20:51:18.143Z,10.97
2022-09-29T20:53:52.966Z,11.97
2022-09-29T20:56:20.575Z,11.40
2022-09-29T20:58:50.661Z,12.10
2022-09-29T21:01:23.424Z,12.23
2022-09-29T21:04:00.050Z,12.90
2022-09-29T21:06:40.535Z,13.07
2022-09-29T21:09:11.463Z,15.10
2022-09-29T21:11:43.637Z,15.70
2022-09-29T21:14:19.868Z,12.83
2022-09-29T21:16:51.355Z,15.43
2022-09-29T21:19:38.132Z,14.33
2022-09-29T21:22:05.887Z,13.77
2022-09-29T21:24:34.818Z,15.40
2022-09-29T21:27:02.001Z,14.67
2022-09-29T21:29:29.381Z,14.27
2022-09-29T21:31:56.513Z,12.47
2022-09-29T21:34:23.891Z,12.47
2022-09-29T21:36:51.193Z,13.00
2022-09-29T21:39:18.524Z,10.63
2022-09-29T21:41:50.680Z,11.33
2022-09-29T21:44:21.785Z,13.43
2022-09-29T21:46:49.411Z,10.90
2022-09-29T21:49:18.413Z,12.97
2022-09-29T21:51:51.092Z,12.37
2022-09-29T21:54:23.653Z,11.33
2022-09-29T21:56:52.466Z,12.13
2022-09-29T21:59:22.687Z,12.27
2022-09-29T22:01:50.744Z,12.63
2022-09-29T22:04:18.683Z,13.30
2022-09-29T22:06:45.933Z,13.03
2022-09-29T22:09:20.879Z,13.80
2022-09-29T22:11:50.377Z,11.90
2022-09-29T22:14:18.753Z,13.63
2022-09-29T22:16:46.250Z,11.70
2022-09-29T22:19:29.742Z,10.23
2022-09-29T22:21:57.467Z,10.80
2022-09-29T22:24:27.564Z,10.83
2022-09-29T22:26:55.181Z,11.33
2022-09-29T22:29:22.720Z,12.37
2022-09-29T22:31:50.055Z,11.50
2022-09-29T22:34:17.628Z,11.23
2022-09-29T22:36:47.544Z,10.93
2022-09-29T22:39:14.745Z,11.93
2022-09-29T22:41:42.252Z,13.37
2022-09-29T22:44:09.837Z,12.63
2022-09-29T22:46:37.792Z,11.60
2022-09-29T22:49:05.309Z,12.10
2022-09-29T22:51:32.900Z,13.57
2022-09-29T22:54:00.170Z,12.13
2022-09-29T22:56:30.259Z,13.10
2022-09-29T22:59:05.065Z,12.57
2022-09-29T23:01:36.120Z,10.47
2022-09-29T23:04:04.361Z,11.70
2022-09-29T23:06:32.694Z,10.13
2022-09-29T23:09:00.519Z,11.60
2022-09-29T23:11:29.854Z,8.97
2022-09-29T23:13:57.464Z,11.53
2022-09-29T23:16:24.627Z,8.93
2022-09-29T23:18:58.765Z,8.83
2022-09-29T23:21:26.771Z,9.27
2022-09-29T23:24:00.594Z,9.43
2022-09-29T23:26:30.616Z,9.53
2022-09-29T23:28:58.931Z,9.97
2022-09-29T23:31:28.809Z,8.83
2022-09-29T23:33:59.582Z,8.30
2022-09-29T23:36:29.930Z,8.23
2022-09-29T23:39:14.372Z,7.93
2022-09-29T23:41:48.848Z,7.53
2022-09-29T23:44:25.914Z,8.07
2022-09-29T23:46:55.624Z,8.80
2022-09-29T23:49:27.563Z,7.57
2022-09-29T23:51:59.164Z,6.83
2022-09-29T23:54:29.622Z,7.13
2022-09-29T23:56:58.267Z,7.47
2022-09-29T23:59:26.613Z,6.67
